sensor_id;sensor_type;location;lat;lon;timestamp;temperature;humidity
11812;DHT22;5963;50.184;9.162;2023-04-24T00:00:15;11.90;99.90
11812;DHT22;5963;50.184;9.162;2023-04-24T00:02:46;11.90;99.90
11812;DHT22;5963;50.184;9.162;2023-04-24T00:05:18;11.90;99.90
11812;DHT22;5963;50.184;9.162;2023-04-24T00:07:48;11.90;99.90
11812;DHT22;5963;50.184;9.162;2023-04-24T00:10:21;11.80;99.90
11812;DHT22;5963;50.184;9.162;2023-04-24T00:12:50;11.80;99.90
11812;DHT22;5963;50.184;9.162;2023-04-24T00:15:20;11.80;99.90
11812;DHT22;5963;50.184;9.162;2023-04-24T00:17:50;11.80;99.90
11812;DHT22;5963;50.184;9.162;2023-04-24T00:20:23;11.80;99.90
11812;DHT22;5963;50.184;9.162;2023-04-24T00:22:52;11.80;99.90
11812;DHT22;5963;50.184;9.162;2023-04-24T00:25:22;11.80;99.90
11812;DHT22;5963;50.184;9.162;2023-04-24T00:27:52;11.80;99.90
11812;DHT22;5963;50.184;9.162;2023-04-24T00:30:22;11.80;99.90
11812;DHT22;5963;50.184;9.162;2023-04-24T00:32:52;11.70;99.90
11812;DHT22;5963;50.184;9.162;2023-04-24T00:35:23;11.70;99.90
11812;DHT22;5963;50.184;9.162;2023-04-24T00:37:53;11.60;99.90
11812;DHT22;5963;50.184;9.162;2023-04-24T00:40:21;11.60;99.90
11812;DHT22;5963;50.184;9.162;2023-04-24T00:42:51;11.50;99.90
11812;DHT22;5963;50.184;9.162;2023-04-24T00:45:21;11.40;99.90
11812;DHT22;5963;50.184;9.162;2023-04-24T00:47:52;11.30;99.90
11812;DHT22;5963;50.184;9.162;2023-04-24T00:50:24;11.20;99.90
11812;DHT22;5963;50.184;9.162;2023-04-24T00:52:54;11.10;99.90
11812;DHT22;5963;50.184;9.162;2023-04-24T00:55:24;11.00;99.90
11812;DHT22;5963;50.184;9.162;2023-04-24T00:57:54;11.00;99.90
11812;DHT22;5963;50.184;9.162;2023-04-24T01:00:24;11.00;99.90
11812;DHT22;5963;50.184;9.162;2023-04-24T01:02:55;11.10;99.90
11812;DHT22;5963;50.184;9.162;2023-04-24T01:05:26;11.10;99.90
11812;DHT22;5963;50.184;9.162;2023-04-24T01:07:56;11.10;99.90
11812;DHT22;5963;50.184;9.162;2023-04-24T01:10:26;11.10;99.90
11812;DHT22;5963;50.184;9.162;2023-04-24T01:12:57;11.10;99.90
11812;DHT22;5963;50.184;9.162;2023-04-24T01:15:27;11.10;99.90
11812;DHT22;5963;50.184;9.162;2023-04-24T01:17:57;11.00;99.90
11812;DHT22;5963;50.184;9.162;2023-04-24T01:20:28;11.00;99.90
11812;DHT22;5963;50.184;9.162;2023-04-24T01:23:00;11.10;99.90
11812;DHT22;5963;50.184;9.162;2023-04-24T01:25:31;11.00;99.90
11812;DHT22;5963;50.184;9.162;2023-04-24T01:28:02;11.00;99.90
11812;DHT22;5963;50.184;9.162;2023-04-24T01:30:33;11.00;99.90
11812;DHT22;5963;50.184;9.162;2023-04-24T01:33:03;10.90;99.90
11812;DHT22;5963;50.184;9.162;2023-04-24T01:35:34;10.90;99.90
11812;DHT22;5963;50.184;9.162;2023-04-24T01:38:06;10.80;99.90
11812;DHT22;5963;50.184;9.162;2023-04-24T01:40:36;10.80;99.90
11812;DHT22;5963;50.184;9.162;2023-04-24T01:43:06;10.80;99.90
11812;DHT22;5963;50.184;9.162;2023-04-24T01:45:38;10.80;99.90
11812;DHT22;5963;50.184;9.162;2023-04-24T01:48:07;10.70;99.90
11812;DHT22;5963;50.184;9.162;2023-04-24T01:50:37;10.70;99.90
11812;DHT22;5963;50.184;9.162;2023-04-24T01:53:09;10.80;99.90
11812;DHT22;5963;50.184;9.162;2023-04-24T01:55:38;10.80;99.90
11812;DHT22;5963;50.184;9.162;2023-04-24T01:58:08;10.80;99.90
11812;DHT22;5963;50.184;9.162;2023-04-24T02:00:38;10.80;99.90
11812;DHT22;5963;50.184;9.162;2023-04-24T02:03:08;10.80;99.90
11812;DHT22;5963;50.184;9.162;2023-04-24T02:05:38;10.80;99.90
11812;DHT22;5963;50.184;9.162;2023-04-24T02:08:09;10.90;99.90
11812;DHT22;5963;50.184;9.162;2023-04-24T02:10:39;10.90;99.90
11812;DHT22;5963;50.184;9.162;2023-04-24T02:13:08;10.90;99.90
11812;DHT22;5963;50.184;9.162;2023-04-24T02:15:38;10.90;99.90
11812;DHT22;5963;50.184;9.162;2023-04-24T02:18:08;10.90;99.90
11812;DHT22;5963;50.184;9.162;2023-04-24T02:20:39;11.00;99.90
11812;DHT22;5963;50.184;9.162;2023-04-24T02:23:10;11.00;99.90
11812;DHT22;5963;50.184;9.162;2023-04-24T02:25:41;11.00;99.90
11812;DHT22;5963;50.184;9.162;2023-04-24T02:28:11;11.10;99.90
11812;DHT22;5963;50.184;9.162;2023-04-24T02:30:41;11.00;99.90
11812;DHT22;5963;50.184;9.162;2023-04-24T02:33:11;11.00;99.90
11812;DHT22;5963;50.184;9.162;2023-04-24T02:35:40;11.10;99.90
11812;DHT22;5963;50.184;9.162;2023-04-24T02:38:12;11.10;99.90
11812;DHT22;5963;50.184;9.162;2023-04-24T02:40:41;11.20;99.90
11812;DHT22;5963;50.184;9.162;2023-04-24T02:43:11;11.20;99.90
11812;DHT22;5963;50.184;9.162;2023-04-24T02:45:42;11.20;99.90
11812;DHT22;5963;50.184;9.162;2023-04-24T02:48:12;11.20;99.90
11812;DHT22;5963;50.184;9.162;2023-04-24T02:50:42;11.20;99.90
11812;DHT22;5963;50.184;9.162;2023-04-24T02:53:13;11.20;99.90
11812;DHT22;5963;50.184;9.162;2023-04-24T02:55:43;11.20;99.90
11812;DHT22;5963;50.184;9.162;2023-04-24T02:58:14;11.20;99.90
11812;DHT22;5963;50.184;9.162;2023-04-24T03:00:44;11.20;99.90
11812;DHT22;5963;50.184;9.162;2023-04-24T03:03:14;11.20;99.90
11812;DHT22;5963;50.184;9.162;2023-04-24T03:05:44;11.30;99.90
11812;DHT22;5963;50.184;9.162;2023-04-24T03:08:15;11.20;99.90
11812;DHT22;5963;50.184;9.162;2023-04-24T03:10:46;11.30;99.90
11812;DHT22;5963;50.184;9.162;2023-04-24T03:13:16;11.30;99.90
11812;DHT22;5963;50.184;9.162;2023-04-24T03:15:46;11.30;99.90
11812;DHT22;5963;50.184;9.162;2023-04-24T03:18:16;11.30;99.90
11812;DHT22;5963;50.184;9.162;2023-04-24T03:20:47;11.30;99.90
11812;DHT22;5963;50.184;9.162;2023-04-24T03:23:18;11.20;99.90
11812;DHT22;5963;50.184;9.162;2023-04-24T03:25:48;11.20;99.90
11812;DHT22;5963;50.184;9.162;2023-04-24T03:28:18;11.20;99.90
11812;DHT22;5963;50.184;9.162;2023-04-24T03:30:47;11.10;99.90
11812;DHT22;5963;50.184;9.162;2023-04-24T03:33:17;11.10;99.90
11812;DHT22;5963;50.184;9.162;2023-04-24T03:35:47;11.10;99.90
11812;DHT22;5963;50.184;9.162;2023-04-24T03:38:18;11.10;99.90
11812;DHT22;5963;50.184;9.162;2023-04-24T03:40:48;11.10;99.90
11812;DHT22;5963;50.184;9.162;2023-04-24T03:43:18;11.00;99.90
11812;DHT22;5963;50.184;9.162;2023-04-24T03:45:48;11.00;99.90
11812;DHT22;5963;50.184;9.162;2023-04-24T03:48:17;11.00;99.90
11812;DHT22;5963;50.184;9.162;2023-04-24T03:50:47;11.00;99.90
11812;DHT22;5963;50.184;9.162;2023-04-24T03:53:18;11.00;99.90
11812;DHT22;5963;50.184;9.162;2023-04-24T03:55:48;11.00;99.90
11812;DHT22;5963;50.184;9.162;2023-04-24T03:58:18;11.00;99.90
11812;DHT22;5963;50.184;9.162;2023-04-24T04:00:48;11.00;99.90
11812;DHT22;5963;50.184;9.162;2023-04-24T04:03:18;11.00;99.90
11812;DHT22;5963;50.184;9.162;2023-04-24T04:05:48;11.00;99.90
11812;DHT22;5963;50.184;9.162;2023-04-24T04:08:19;10.90;99.90
11812;DHT22;5963;50.184;9.162;2023-04-24T04:10:48;11.00;99.90
11812;DHT22;5963;50.184;9.162;2023-04-24T04:13:18;10.90;99.90
11812;DHT22;5963;50.184;9.162;2023-04-24T04:15:48;11.00;99.90
11812;DHT22;5963;50.184;9.162;2023-04-24T04:18:18;10.90;99.90
11812;DHT22;5963;50.184;9.162;2023-04-24T04:20:47;10.80;99.90
11812;DHT22;5963;50.184;9.162;2023-04-24T04:23:19;10.80;99.90
11812;DHT22;5963;50.184;9.162;2023-04-24T04:25:48;10.70;99.90
11812;DHT22;5963;50.184;9.162;2023-04-24T04:28:18;10.70;99.90
11812;DHT22;5963;50.184;9.162;2023-04-24T04:30:49;10.70;99.90
11812;DHT22;5963;50.184;9.162;2023-04-24T04:33:22;10.60;99.90
11812;DHT22;5963;50.184;9.162;2023-04-24T04:35:51;10.60;99.90
11812;DHT22;5963;50.184;9.162;2023-04-24T04:38:23;10.60;99.90
11812;DHT22;5963;50.184;9.162;2023-04-24T04:40:52;10.60;99.90
11812;DHT22;5963;50.184;9.162;2023-04-24T04:43:24;10.60;99.90
11812;DHT22;5963;50.184;9.162;2023-04-24T04:45:54;10.50;99.90
11812;DHT22;5963;50.184;9.162;2023-04-24T04:48:24;10.40;99.90
11812;DHT22;5963;50.184;9.162;2023-04-24T04:50:54;10.40;99.90
11812;DHT22;5963;50.184;9.162;2023-04-24T04:53:25;10.30;99.90
11812;DHT22;5963;50.184;9.162;2023-04-24T04:55:53;10.30;99.90
11812;DHT22;5963;50.184;9.162;2023-04-24T04:58:23;10.30;99.90
11812;DHT22;5963;50.184;9.162;2023-04-24T05:00:53;10.20;99.90
11812;DHT22;5963;50.184;9.162;2023-04-24T05:03:22;10.20;99.90
11812;DHT22;5963;50.184;9.162;2023-04-24T05:05:52;10.30;99.90
11812;DHT22;5963;50.184;9.162;2023-04-24T05:08:22;10.20;99.90
11812;DHT22;5963;50.184;9.162;2023-04-24T05:10:56;10.20;99.90
11812;DHT22;5963;50.184;9.162;2023-04-24T05:13:26;10.20;99.90
11812;DHT22;5963;50.184;9.162;2023-04-24T05:16:07;10.10;99.90
11812;DHT22;5963;50.184;9.162;2023-04-24T05:18:37;10.10;99.90
11812;DHT22;5963;50.184;9.162;2023-04-24T05:21:07;10.10;99.90
11812;DHT22;5963;50.184;9.162;2023-04-24T05:23:37;10.10;99.90
11812;DHT22;5963;50.184;9.162;2023-04-24T05:26:08;10.10;99.90
11812;DHT22;5963;50.184;9.162;2023-04-24T05:28:37;10.20;99.90
11812;DHT22;5963;50.184;9.162;2023-04-24T05:31:07;10.60;99.90
11812;DHT22;5963;50.184;9.162;2023-04-24T05:33:37;11.00;99.90
11812;DHT22;5963;50.184;9.162;2023-04-24T05:36:08;11.80;99.90
11812;DHT22;5963;50.184;9.162;2023-04-24T05:38:38;12.40;99.90
11812;DHT22;5963;50.184;9.162;2023-04-24T05:41:09;12.70;99.90
11812;DHT22;5963;50.184;9.162;2023-04-24T05:43:38;12.90;99.90
11812;DHT22;5963;50.184;9.162;2023-04-24T05:46:08;12.70;99.90
11812;DHT22;5963;50.184;9.162;2023-04-24T05:48:38;13.20;99.90
11812;DHT22;5963;50.184;9.162;2023-04-24T05:51:08;13.20;99.90
11812;DHT22;5963;50.184;9.162;2023-04-24T05:53:38;13.30;99.90
11812;DHT22;5963;50.184;9.162;2023-04-24T05:56:09;12.70;99.90
11812;DHT22;5963;50.184;9.162;2023-04-24T05:58:39;12.80;99.90
11812;DHT22;5963;50.184;9.162;2023-04-24T06:01:09;13.00;99.90
11812;DHT22;5963;50.184;9.162;2023-04-24T06:03:39;13.30;99.90
11812;DHT22;5963;50.184;9.162;2023-04-24T06:06:10;13.70;99.90
11812;DHT22;5963;50.184;9.162;2023-04-24T06:08:39;13.90;99.90
11812;DHT22;5963;50.184;9.162;2023-04-24T06:11:12;14.20;99.90
11812;DHT22;5963;50.184;9.162;2023-04-24T06:13:41;14.10;99.90
11812;DHT22;5963;50.184;9.162;2023-04-24T06:16:12;14.90;99.90
11812;DHT22;5963;50.184;9.162;2023-04-24T06:18:41;14.20;99.90
11812;DHT22;5963;50.184;9.162;2023-04-24T06:21:11;14.70;99.90
11812;DHT22;5963;50.184;9.162;2023-04-24T06:23:41;13.80;99.90
11812;DHT22;5963;50.184;9.162;2023-04-24T06:26:12;13.50;99.90
11812;DHT22;5963;50.184;9.162;2023-04-24T06:28:42;14.60;99.90
11812;DHT22;5963;50.184;9.162;2023-04-24T06:31:12;13.40;99.90
11812;DHT22;5963;50.184;9.162;2023-04-24T06:33:42;13.10;99.90
11812;DHT22;5963;50.184;9.162;2023-04-24T06:36:11;14.10;99.90
11812;DHT22;5963;50.184;9.162;2023-04-24T06:38:41;14.90;99.90
11812;DHT22;5963;50.184;9.162;2023-04-24T06:41:13;14.80;99.90
11812;DHT22;5963;50.184;9.162;2023-04-24T06:43:42;13.40;99.90
11812;DHT22;5963;50.184;9.162;2023-04-24T06:46:13;13.20;99.90
11812;DHT22;5963;50.184;9.162;2023-04-24T06:48:43;12.90;99.90
11812;DHT22;5963;50.184;9.162;2023-04-24T06:51:12;12.80;99.90
11812;DHT22;5963;50.184;9.162;2023-04-24T06:53:42;12.20;99.90
11812;DHT22;5963;50.184;9.162;2023-04-24T06:56:13;11.90;99.90
11812;DHT22;5963;50.184;9.162;2023-04-24T06:58:43;11.70;99.90
11812;DHT22;5963;50.184;9.162;2023-04-24T07:01:13;11.50;99.90
11812;DHT22;5963;50.184;9.162;2023-04-24T07:03:43;11.60;99.90
11812;DHT22;5963;50.184;9.162;2023-04-24T07:06:13;11.40;99.90
11812;DHT22;5963;50.184;9.162;2023-04-24T07:08:44;11.10;99.90
11812;DHT22;5963;50.184;9.162;2023-04-24T07:11:17;11.40;99.90
11812;DHT22;5963;50.184;9.162;2023-04-24T07:13:46;11.50;99.90
11812;DHT22;5963;50.184;9.162;2023-04-24T07:16:16;11.50;99.90
11812;DHT22;5963;50.184;9.162;2023-04-24T07:18:46;11.40;99.90
11812;DHT22;5963;50.184;9.162;2023-04-24T07:21:16;11.50;99.90
11812;DHT22;5963;50.184;9.162;2023-04-24T07:23:46;11.60;99.90
11812;DHT22;5963;50.184;9.162;2023-04-24T07:26:17;11.30;99.90
11812;DHT22;5963;50.184;9.162;2023-04-24T07:28:47;11.30;99.90
11812;DHT22;5963;50.184;9.162;2023-04-24T07:31:17;11.40;99.90
11812;DHT22;5963;50.184;9.162;2023-04-24T07:33:47;11.50;99.90
11812;DHT22;5963;50.184;9.162;2023-04-24T07:36:17;11.40;99.90
11812;DHT22;5963;50.184;9.162;2023-04-24T07:38:48;11.40;99.90
11812;DHT22;5963;50.184;9.162;2023-04-24T07:41:20;11.70;99.90
11812;DHT22;5963;50.184;9.162;2023-04-24T07:43:52;12.40;99.90
11812;DHT22;5963;50.184;9.162;2023-04-24T07:46:22;12.50;99.90
11812;DHT22;5963;50.184;9.162;2023-04-24T07:48:53;12.40;99.90
11812;DHT22;5963;50.184;9.162;2023-04-24T07:51:40;12.40;99.90
11812;DHT22;5963;50.184;9.162;2023-04-24T07:54:10;12.90;99.90
11812;DHT22;5963;50.184;9.162;2023-04-24T07:56:43;13.00;99.90
11812;DHT22;5963;50.184;9.162;2023-04-24T07:59:13;12.90;99.90
11812;DHT22;5963;50.184;9.162;2023-04-24T08:01:43;13.30;99.90
11812;DHT22;5963;50.184;9.162;2023-04-24T08:04:12;13.00;99.90
11812;DHT22;5963;50.184;9.162;2023-04-24T08:06:42;12.90;99.90
11812;DHT22;5963;50.184;9.162;2023-04-24T08:09:12;12.90;99.90
11812;DHT22;5963;50.184;9.162;2023-04-24T08:11:44;12.80;99.90
11812;DHT22;5963;50.184;9.162;2023-04-24T08:14:13;12.50;99.90
11812;DHT22;5963;50.184;9.162;2023-04-24T08:16:43;12.10;99.90
11812;DHT22;5963;50.184;9.162;2023-04-24T08:19:13;12.40;99.90
11812;DHT22;5963;50.184;9.162;2023-04-24T08:21:43;12.90;99.90
11812;DHT22;5963;50.184;9.162;2023-04-24T08:24:13;13.40;99.90
11812;DHT22;5963;50.184;9.162;2023-04-24T08:26:44;14.00;99.90
11812;DHT22;5963;50.184;9.162;2023-04-24T08:29:14;14.00;99.90
11812;DHT22;5963;50.184;9.162;2023-04-24T08:31:43;13.70;99.90
11812;DHT22;5963;50.184;9.162;2023-04-24T08:34:13;13.90;99.90
11812;DHT22;5963;50.184;9.162;2023-04-24T08:36:43;13.60;99.90
11812;DHT22;5963;50.184;9.162;2023-04-24T08:39:15;13.40;99.90
11812;DHT22;5963;50.184;9.162;2023-04-24T08:41:46;13.50;99.90
11812;DHT22;5963;50.184;9.162;2023-04-24T08:44:18;13.40;99.90
11812;DHT22;5963;50.184;9.162;2023-04-24T08:46:49;13.10;99.90
11812;DHT22;5963;50.184;9.162;2023-04-24T08:49:21;12.90;99.90
11812;DHT22;5963;50.184;9.162;2023-04-24T08:51:51;12.70;99.90
11812;DHT22;5963;50.184;9.162;2023-04-24T08:54:22;12.40;99.90
11812;DHT22;5963;50.184;9.162;2023-04-24T08:56:56;12.20;99.90
11812;DHT22;5963;50.184;9.162;2023-04-24T08:59:27;12.10;99.90
11812;DHT22;5963;50.184;9.162;2023-04-24T09:01:57;12.30;99.90
11812;DHT22;5963;50.184;9.162;2023-04-24T09:04:27;12.80;99.90
11812;DHT22;5963;50.184;9.162;2023-04-24T09:06:58;13.50;99.90
11812;DHT22;5963;50.184;9.162;2023-04-24T09:09:30;13.70;99.90
11812;DHT22;5963;50.184;9.162;2023-04-24T09:12:03;13.70;99.90
11812;DHT22;5963;50.184;9.162;2023-04-24T09:14:33;12.90;99.90
11812;DHT22;5963;50.184;9.162;2023-04-24T09:17:04;12.80;99.90
11812;DHT22;5963;50.184;9.162;2023-04-24T09:19:35;12.50;99.90
11812;DHT22;5963;50.184;9.162;2023-04-24T09:22:07;12.40;99.90
11812;DHT22;5963;50.184;9.162;2023-04-24T09:24:36;12.20;99.90
11812;DHT22;5963;50.184;9.162;2023-04-24T09:27:10;12.10;99.90
11812;DHT22;5963;50.184;9.162;2023-04-24T09:29:40;12.00;99.90
11812;DHT22;5963;50.184;9.162;2023-04-24T09:32:23;11.90;99.90
11812;DHT22;5963;50.184;9.162;2023-04-24T09:35:06;11.80;99.90
11812;DHT22;5963;50.184;9.162;2023-04-24T09:37:40;11.70;99.90
11812;DHT22;5963;50.184;9.162;2023-04-24T09:40:14;11.50;99.90
11812;DHT22;5963;50.184;9.162;2023-04-24T09:42:51;11.50;99.90
11812;DHT22;5963;50.184;9.162;2023-04-24T09:45:22;11.60;99.90
11812;DHT22;5963;50.184;9.162;2023-04-24T09:47:57;11.70;99.90
11812;DHT22;5963;50.184;9.162;2023-04-24T09:50:27;11.50;99.90
11812;DHT22;5963;50.184;9.162;2023-04-24T09:53:01;11.40;99.90
11812;DHT22;5963;50.184;9.162;2023-04-24T09:55:32;11.50;99.90
11812;DHT22;5963;50.184;9.162;2023-04-24T09:58:04;11.40;99.90
11812;DHT22;5963;50.184;9.162;2023-04-24T10:00:34;11.30;99.90
11812;DHT22;5963;50.184;9.162;2023-04-24T10:03:05;11.60;99.90
11812;DHT22;5963;50.184;9.162;2023-04-24T10:05:36;11.40;99.90
11812;DHT22;5963;50.184;9.162;2023-04-24T10:08:08;11.50;99.90
11812;DHT22;5963;50.184;9.162;2023-04-24T10:10:41;11.50;99.90
11812;DHT22;5963;50.184;9.162;2023-04-24T10:13:13;11.50;99.90
11812;DHT22;5963;50.184;9.162;2023-04-24T10:15:44;11.60;99.90
11812;DHT22;5963;50.184;9.162;2023-04-24T10:18:15;11.60;99.90
11812;DHT22;5963;50.184;9.162;2023-04-24T10:20:45;11.60;99.90
11812;DHT22;5963;50.184;9.162;2023-04-24T10:23:14;11.60;99.90
11812;DHT22;5963;50.184;9.162;2023-04-24T10:25:45;11.50;99.90
11812;DHT22;5963;50.184;9.162;2023-04-24T10:28:16;11.50;99.90
11812;DHT22;5963;50.184;9.162;2023-04-24T10:30:47;11.50;99.90
11812;DHT22;5963;50.184;9.162;2023-04-24T10:33:18;11.50;99.90
11812;DHT22;5963;50.184;9.162;2023-04-24T10:35:50;11.60;99.90
11812;DHT22;5963;50.184;9.162;2023-04-24T10:38:26;11.80;99.90
11812;DHT22;5963;50.184;9.162;2023-04-24T10:40:59;12.00;99.90
11812;DHT22;5963;50.184;9.162;2023-04-24T10:43:37;12.50;99.90
11812;DHT22;5963;50.184;9.162;2023-04-24T10:46:10;12.90;99.90
11812;DHT22;5963;50.184;9.162;2023-04-24T10:48:44;13.30;99.90
11812;DHT22;5963;50.184;9.162;2023-04-24T10:51:23;13.30;99.90
11812;DHT22;5963;50.184;9.162;2023-04-24T10:53:54;13.60;99.90
11812;DHT22;5963;50.184;9.162;2023-04-24T10:56:29;13.70;99.90
11812;DHT22;5963;50.184;9.162;2023-04-24T10:59:03;13.40;99.90
11812;DHT22;5963;50.184;9.162;2023-04-24T11:01:40;13.10;99.90
11812;DHT22;5963;50.184;9.162;2023-04-24T11:04:32;12.90;99.90
11812;DHT22;5963;50.184;9.162;2023-04-24T11:07:01;12.40;99.90
11812;DHT22;5963;50.184;9.162;2023-04-24T11:09:32;12.50;99.90
11812;DHT22;5963;50.184;9.162;2023-04-24T11:12:05;12.50;99.90
11812;DHT22;5963;50.184;9.162;2023-04-24T11:15:02;12.10;99.90
11812;DHT22;5963;50.184;9.162;2023-04-24T11:17:33;11.90;99.90
11812;DHT22;5963;50.184;9.162;2023-04-24T11:20:07;11.40;99.90
11812;DHT22;5963;50.184;9.162;2023-04-24T11:22:55;11.20;99.90
11812;DHT22;5963;50.184;9.162;2023-04-24T11:25:28;11.00;99.90
11812;DHT22;5963;50.184;9.162;2023-04-24T11:28:05;11.00;99.90
11812;DHT22;5963;50.184;9.162;2023-04-24T11:30:36;11.10;99.90
11812;DHT22;5963;50.184;9.162;2023-04-24T11:33:09;11.10;99.90
11812;DHT22;5963;50.184;9.162;2023-04-24T11:35:41;10.80;99.90
11812;DHT22;5963;50.184;9.162;2023-04-24T11:38:12;10.90;99.90
11812;DHT22;5963;50.184;9.162;2023-04-24T11:40:51;11.10;99.90
11812;DHT22;5963;50.184;9.162;2023-04-24T11:43:21;11.40;99.90
11812;DHT22;5963;50.184;9.162;2023-04-24T11:45:52;11.90;99.90
11812;DHT22;5963;50.184;9.162;2023-04-24T11:48:20;12.20;99.90
11812;DHT22;5963;50.184;9.162;2023-04-24T11:50:52;12.00;99.90
11812;DHT22;5963;50.184;9.162;2023-04-24T11:53:22;12.20;99.90
11812;DHT22;5963;50.184;9.162;2023-04-24T11:55:51;12.10;99.90
11812;DHT22;5963;50.184;9.162;2023-04-24T11:58:23;11.80;99.90
11812;DHT22;5963;50.184;9.162;2023-04-24T12:00:59;11.50;99.90
11812;DHT22;5963;50.184;9.162;2023-04-24T12:03:29;11.40;99.90
11812;DHT22;5963;50.184;9.162;2023-04-24T12:06:11;11.80;99.90
11812;DHT22;5963;50.184;9.162;2023-04-24T12:08:41;12.00;99.90
11812;DHT22;5963;50.184;9.162;2023-04-24T12:11:10;12.10;99.90
11812;DHT22;5963;50.184;9.162;2023-04-24T12:13:40;12.20;99.90
11812;DHT22;5963;50.184;9.162;2023-04-24T12:16:12;11.90;99.90
11812;DHT22;5963;50.184;9.162;2023-04-24T12:18:45;11.90;99.90
11812;DHT22;5963;50.184;9.162;2023-04-24T12:21:18;12.00;99.90
11812;DHT22;5963;50.184;9.162;2023-04-24T12:23:50;12.20;99.90
11812;DHT22;5963;50.184;9.162;2023-04-24T12:26:23;12.20;99.90
11812;DHT22;5963;50.184;9.162;2023-04-24T12:28:54;12.10;99.90
11812;DHT22;5963;50.184;9.162;2023-04-24T12:31:25;12.20;99.90
11812;DHT22;5963;50.184;9.162;2023-04-24T12:33:57;12.40;99.90
11812;DHT22;5963;50.184;9.162;2023-04-24T12:36:27;12.40;99.90
11812;DHT22;5963;50.184;9.162;2023-04-24T12:38:58;12.30;99.90
11812;DHT22;5963;50.184;9.162;2023-04-24T12:41:30;11.90;99.90
11812;DHT22;5963;50.184;9.162;2023-04-24T12:44:00;11.40;99.90
11812;DHT22;5963;50.184;9.162;2023-04-24T12:46:35;10.90;99.90
11812;DHT22;5963;50.184;9.162;2023-04-24T12:49:05;10.70;99.90
11812;DHT22;5963;50.184;9.162;2023-04-24T12:51:39;10.50;99.90
11812;DHT22;5963;50.184;9.162;2023-04-24T12:54:09;10.50;99.90
11812;DHT22;5963;50.184;9.162;2023-04-24T12:56:40;10.60;99.90
11812;DHT22;5963;50.184;9.162;2023-04-24T12:59:10;10.80;99.90
11812;DHT22;5963;50.184;9.162;2023-04-24T13:01:41;11.30;99.90
11812;DHT22;5963;50.184;9.162;2023-04-24T13:04:13;11.60;99.90
11812;DHT22;5963;50.184;9.162;2023-04-24T13:06:44;12.00;99.90
11812;DHT22;5963;50.184;9.162;2023-04-24T13:09:14;12.20;99.90
11812;DHT22;5963;50.184;9.162;2023-04-24T13:11:43;12.10;99.90
11812;DHT22;5963;50.184;9.162;2023-04-24T13:14:17;11.80;99.90
11812;DHT22;5963;50.184;9.162;2023-04-24T13:16:49;11.60;99.90
11812;DHT22;5963;50.184;9.162;2023-04-24T13:19:17;11.20;99.90
11812;DHT22;5963;50.184;9.162;2023-04-24T13:21:47;10.90;99.90
11812;DHT22;5963;50.184;9.162;2023-04-24T13:24:17;10.70;99.90
11812;DHT22;5963;50.184;9.162;2023-04-24T13:26:46;10.60;99.90
11812;DHT22;5963;50.184;9.162;2023-04-24T13:29:21;10.30;99.90
11812;DHT22;5963;50.184;9.162;2023-04-24T13:32:00;10.20;99.90
11812;DHT22;5963;50.184;9.162;2023-04-24T13:34:30;10.40;99.90
11812;DHT22;5963;50.184;9.162;2023-04-24T13:37:00;10.90;99.90
11812;DHT22;5963;50.184;9.162;2023-04-24T13:39:30;11.00;99.90
11812;DHT22;5963;50.184;9.162;2023-04-24T13:42:00;11.10;99.90
11812;DHT22;5963;50.184;9.162;2023-04-24T13:44:32;11.20;99.90
11812;DHT22;5963;50.184;9.162;2023-04-24T13:47:04;11.20;99.90
11812;DHT22;5963;50.184;9.162;2023-04-24T13:49:36;11.20;99.90
11812;DHT22;5963;50.184;9.162;2023-04-24T13:52:08;11.40;99.90
11812;DHT22;5963;50.184;9.162;2023-04-24T13:54:39;11.50;99.90
11812;DHT22;5963;50.184;9.162;2023-04-24T13:57:09;11.60;99.90
11812;DHT22;5963;50.184;9.162;2023-04-24T13:59:38;11.80;99.90
11812;DHT22;5963;50.184;9.162;2023-04-24T14:02:09;11.90;99.90
11812;DHT22;5963;50.184;9.162;2023-04-24T14:04:41;11.80;99.90
11812;DHT22;5963;50.184;9.162;2023-04-24T14:07:11;11.80;99.90
11812;DHT22;5963;50.184;9.162;2023-04-24T14:09:41;11.80;99.90
11812;DHT22;5963;50.184;9.162;2023-04-24T14:12:11;11.70;99.90
11812;DHT22;5963;50.184;9.162;2023-04-24T14:14:41;11.90;99.90
11812;DHT22;5963;50.184;9.162;2023-04-24T14:17:13;12.00;99.90
11812;DHT22;5963;50.184;9.162;2023-04-24T14:19:43;12.10;99.90
11812;DHT22;5963;50.184;9.162;2023-04-24T14:22:12;12.10;99.90
11812;DHT22;5963;50.184;9.162;2023-04-24T14:24:42;11.80;99.90
11812;DHT22;5963;50.184;9.162;2023-04-24T14:27:12;11.70;99.90
11812;DHT22;5963;50.184;9.162;2023-04-24T14:29:42;11.20;99.90
11812;DHT22;5963;50.184;9.162;2023-04-24T14:32:14;11.10;99.90
11812;DHT22;5963;50.184;9.162;2023-04-24T14:34:44;11.10;99.90
11812;DHT22;5963;50.184;9.162;2023-04-24T14:37:14;11.20;99.90
11812;DHT22;5963;50.184;9.162;2023-04-24T14:39:44;11.20;99.90
11812;DHT22;5963;50.184;9.162;2023-04-24T14:42:34;11.20;99.90
11812;DHT22;5963;50.184;9.162;2023-04-24T14:45:04;11.40;99.90
11812;DHT22;5963;50.184;9.162;2023-04-24T14:47:35;11.40;99.90
11812;DHT22;5963;50.184;9.162;2023-04-24T14:50:07;11.50;99.90
11812;DHT22;5963;50.184;9.162;2023-04-24T14:52:37;11.70;99.90
11812;DHT22;5963;50.184;9.162;2023-04-24T14:55:08;11.90;99.90
11812;DHT22;5963;50.184;9.162;2023-04-24T14:57:38;12.00;99.90
11812;DHT22;5963;50.184;9.162;2023-04-24T15:00:10;12.00;99.90
11812;DHT22;5963;50.184;9.162;2023-04-24T15:02:42;12.20;99.90
11812;DHT22;5963;50.184;9.162;2023-04-24T15:05:13;12.40;99.90
11812;DHT22;5963;50.184;9.162;2023-04-24T15:07:43;12.50;99.90
11812;DHT22;5963;50.184;9.162;2023-04-24T15:10:13;12.50;99.90
11812;DHT22;5963;50.184;9.162;2023-04-24T15:12:43;12.40;99.90
11812;DHT22;5963;50.184;9.162;2023-04-24T15:15:13;12.50;99.90
11812;DHT22;5963;50.184;9.162;2023-04-24T15:17:44;12.50;99.90
11812;DHT22;5963;50.184;9.162;2023-04-24T15:20:14;12.40;99.90
11812;DHT22;5963;50.184;9.162;2023-04-24T15:22:44;12.40;99.90
11812;DHT22;5963;50.184;9.162;2023-04-24T15:25:14;12.40;99.90
11812;DHT22;5963;50.184;9.162;2023-04-24T15:27:44;12.10;99.90
11812;DHT22;5963;50.184;9.162;2023-04-24T15:30:15;12.10;99.90
11812;DHT22;5963;50.184;9.162;2023-04-24T15:32:46;12.10;99.90
11812;DHT22;5963;50.184;9.162;2023-04-24T15:35:16;12.10;99.90
11812;DHT22;5963;50.184;9.162;2023-04-24T15:37:46;12.10;99.90
11812;DHT22;5963;50.184;9.162;2023-04-24T15:40:16;12.10;99.90
11812;DHT22;5963;50.184;9.162;2023-04-24T15:42:47;12.10;99.90
11812;DHT22;5963;50.184;9.162;2023-04-24T15:45:17;12.00;99.90
11812;DHT22;5963;50.184;9.162;2023-04-24T15:47:48;12.10;99.90
11812;DHT22;5963;50.184;9.162;2023-04-24T15:50:19;12.00;99.90
11812;DHT22;5963;50.184;9.162;2023-04-24T15:52:50;11.80;99.90
11812;DHT22;5963;50.184;9.162;2023-04-24T15:55:20;11.80;99.90
11812;DHT22;5963;50.184;9.162;2023-04-24T15:57:49;12.00;99.90
11812;DHT22;5963;50.184;9.162;2023-04-24T16:00:20;12.10;99.90
11812;DHT22;5963;50.184;9.162;2023-04-24T16:02:51;12.40;99.90
11812;DHT22;5963;50.184;9.162;2023-04-24T16:05:21;12.60;99.90
11812;DHT22;5963;50.184;9.162;2023-04-24T16:07:52;12.60;99.90